sensor_id;sensor_type;location;lat;lon;timestamp;pressure;altitude;pressure_sealevel;temperature;humidity
64841;BME280;51307;52.162;7.560;2023-04-19T00:01:19;102289.69;;;11.98;48.95
64841;BME280;51307;52.162;7.560;2023-04-19T00:03:45;102297.16;;;12.04;48.68
64841;BME280;51307;52.162;7.560;2023-04-19T00:06:10;102296.25;;;11.93;48.88
64841;BME280;51307;52.162;7.560;2023-04-19T00:08:40;102293.47;;;11.95;48.98
64841;BME280;51307;52.162;7.560;2023-04-19T00:11:07;102288.28;;;12.03;48.67
64841;BME280;51307;52.162;7.560;2023-04-19T00:13:32;102284.00;;;11.91;48.73
64841;BME280;51307;52.162;7.560;2023-04-19T00:15:58;102289.47;;;11.89;48.77
64841;BME280;51307;52.162;7.560;2023-04-19T00:18:23;102282.56;;;11.87;48.67
64841;BME280;51307;52.162;7.560;2023-04-19T00:20:49;102286.97;;;11.76;48.86
64841;BME280;51307;52.162;7.560;2023-04-19T00:23:14;102286.44;;;11.83;48.74
64841;BME280;51307;52.162;7.560;2023-04-19T00:25:40;102275.94;;;11.70;49.03
64841;BME280;51307;52.162;7.560;2023-04-19T00:28:05;102268.84;;;11.69;48.81
64841;BME280;51307;52.162;7.560;2023-04-19T00:30:31;102270.84;;;11.67;49.07
64841;BME280;51307;52.162;7.560;2023-04-19T00:32:56;102276.44;;;11.64;48.91
64841;BME280;51307;52.162;7.560;2023-04-19T00:35:22;102270.09;;;11.65;49.06
64841;BME280;51307;52.162;7.560;2023-04-19T00:37:47;102281.94;;;11.62;49.03
64841;BME280;51307;52.162;7.560;2023-04-19T00:40:13;102268.59;;;11.51;49.31
64841;BME280;51307;52.162;7.560;2023-04-19T00:42:38;102268.06;;;11.57;49.23
64841;BME280;51307;52.162;7.560;2023-04-19T00:45:04;102271.28;;;11.51;49.28
64841;BME280;51307;52.162;7.560;2023-04-19T00:47:30;102265.06;;;11.50;49.19
64841;BME280;51307;52.162;7.560;2023-04-19T00:49:55;102262.50;;;11.49;49.17
64841;BME280;51307;52.162;7.560;2023-04-19T00:52:22;102264.88;;;11.42;49.41
64841;BME280;51307;52.162;7.560;2023-04-19T00:54:48;102267.81;;;11.39;49.49
64841;BME280;51307;52.162;7.560;2023-04-19T00:57:17;102267.47;;;11.32;49.47
64841;BME280;51307;52.162;7.560;2023-04-19T00:59:43;102262.13;;;11.32;49.42
64841;BME280;51307;52.162;7.560;2023-04-19T01:02:08;102265.09;;;11.18;49.57
64841;BME280;51307;52.162;7.560;2023-04-19T01:04:34;102265.91;;;11.30;49.38
64841;BME280;51307;52.162;7.560;2023-04-19T01:07:00;102261.91;;;11.24;49.50
64841;BME280;51307;52.162;7.560;2023-04-19T01:09:27;102259.50;;;11.21;49.60
64841;BME280;51307;52.162;7.560;2023-04-19T01:11:52;102261.44;;;11.19;49.52
64841;BME280;51307;52.162;7.560;2023-04-19T01:14:18;102265.09;;;11.18;49.59
64841;BME280;51307;52.162;7.560;2023-04-19T01:16:44;102256.16;;;11.07;49.68
64841;BME280;51307;52.162;7.560;2023-04-19T01:19:10;102263.88;;;11.22;49.52
64841;BME280;51307;52.162;7.560;2023-04-19T01:21:36;102257.38;;;11.03;49.58
64841;BME280;51307;52.162;7.560;2023-04-19T01:24:03;102266.47;;;11.12;49.64
64841;BME280;51307;52.162;7.560;2023-04-19T01:26:29;102261.75;;;11.04;49.68
64841;BME280;51307;52.162;7.560;2023-04-19T01:28:55;102263.06;;;11.10;49.58
64841;BME280;51307;52.162;7.560;2023-04-19T01:31:20;102261.28;;;10.99;49.74
64841;BME280;51307;52.162;7.560;2023-04-19T01:33:46;102266.53;;;11.01;49.50
64841;BME280;51307;52.162;7.560;2023-04-19T01:36:11;102268.47;;;10.99;49.55
64841;BME280;51307;52.162;7.560;2023-04-19T01:38:37;102271.41;;;10.96;49.48
64841;BME280;51307;52.162;7.560;2023-04-19T01:41:03;102276.16;;;10.92;49.59
64841;BME280;51307;52.162;7.560;2023-04-19T01:43:28;102274.78;;;10.98;49.19
64841;BME280;51307;52.162;7.560;2023-04-19T01:45:54;102271.97;;;10.99;49.06
64841;BME280;51307;52.162;7.560;2023-04-19T01:48:19;102273.13;;;10.97;49.34
64841;BME280;51307;52.162;7.560;2023-04-19T01:50:45;102262.75;;;10.92;48.72
64841;BME280;51307;52.162;7.560;2023-04-19T01:53:10;102270.81;;;10.92;48.58
64841;BME280;51307;52.162;7.560;2023-04-19T01:55:36;102274.56;;;10.89;48.37
64841;BME280;51307;52.162;7.560;2023-04-19T01:58:01;102267.75;;;10.97;47.83
64841;BME280;51307;52.162;7.560;2023-04-19T02:00:27;102274.72;;;10.88;47.61
64841;BME280;51307;52.162;7.560;2023-04-19T02:02:52;102269.47;;;10.86;47.83
64841;BME280;51307;52.162;7.560;2023-04-19T02:05:18;102271.56;;;10.83;47.78
64841;BME280;51307;52.162;7.560;2023-04-19T02:07:43;102273.34;;;10.93;47.68
64841;BME280;51307;52.162;7.560;2023-04-19T02:10:09;102268.97;;;10.92;47.91
64841;BME280;51307;52.162;7.560;2023-04-19T02:12:40;102270.63;;;10.72;47.75
64841;BME280;51307;52.162;7.560;2023-04-19T02:15:07;102268.00;;;10.93;47.48
64841;BME280;51307;52.162;7.560;2023-04-19T02:17:33;102271.41;;;10.96;46.81
64841;BME280;51307;52.162;7.560;2023-04-19T02:19:58;102269.34;;;10.88;46.55
64841;BME280;51307;52.162;7.560;2023-04-19T02:22:24;102267.75;;;10.97;46.29
64841;BME280;51307;52.162;7.560;2023-04-19T02:24:49;102270.81;;;10.92;46.54
64841;BME280;51307;52.162;7.560;2023-04-19T02:27:15;102268.59;;;10.97;46.25
64841;BME280;51307;52.162;7.560;2023-04-19T02:29:41;102272.50;;;10.93;46.56
64841;BME280;51307;52.162;7.560;2023-04-19T02:32:06;102269.19;;;11.01;46.42
64841;BME280;51307;52.162;7.560;2023-04-19T02:34:33;102263.72;;;11.02;46.60
64841;BME280;51307;52.162;7.560;2023-04-19T02:36:59;102269.44;;;10.98;47.08
64841;BME280;51307;52.162;7.560;2023-04-19T02:39:25;102265.09;;;10.85;47.04
64841;BME280;51307;52.162;7.560;2023-04-19T02:41:50;102273.53;;;10.81;46.66
64841;BME280;51307;52.162;7.560;2023-04-19T02:44:16;102279.31;;;10.97;46.56
64841;BME280;51307;52.162;7.560;2023-04-19T02:46:47;102270.31;;;10.87;46.33
64841;BME280;51307;52.162;7.560;2023-04-19T02:49:13;102274.56;;;10.89;46.78
64841;BME280;51307;52.162;7.560;2023-04-19T02:51:39;102273.97;;;10.86;46.72
64841;BME280;51307;52.162;7.560;2023-04-19T02:54:04;102269.84;;;10.82;46.69
64841;BME280;51307;52.162;7.560;2023-04-19T02:56:30;102264.75;;;10.79;46.05
64841;BME280;51307;52.162;7.560;2023-04-19T02:58:59;102263.06;;;10.66;45.74
64841;BME280;51307;52.162;7.560;2023-04-19T03:01:25;102273.88;;;10.76;45.38
64841;BME280;51307;52.162;7.560;2023-04-19T03:03:50;102268.53;;;10.76;45.23
64841;BME280;51307;52.162;7.560;2023-04-19T03:06:16;102269.75;;;10.72;44.88
64841;BME280;51307;52.162;7.560;2023-04-19T03:08:42;102266.81;;;10.75;44.28
64841;BME280;51307;52.162;7.560;2023-04-19T03:11:07;102273.03;;;10.75;44.20
64841;BME280;51307;52.162;7.560;2023-04-19T03:13:33;102272.56;;;10.70;43.93
64841;BME280;51307;52.162;7.560;2023-04-19T03:15:58;102266.47;;;10.68;43.39
64841;BME280;51307;52.162;7.560;2023-04-19T03:18:24;102262.59;;;10.61;42.20
64841;BME280;51307;52.162;7.560;2023-04-19T03:20:49;102265.06;;;10.53;42.16
64841;BME280;51307;52.162;7.560;2023-04-19T03:23:15;102257.63;;;10.45;41.75
64841;BME280;51307;52.162;7.560;2023-04-19T03:25:40;102258.13;;;10.39;41.40
64841;BME280;51307;52.162;7.560;2023-04-19T03:28:06;102259.56;;;10.43;41.49
64841;BME280;51307;52.162;7.560;2023-04-19T03:30:31;102258.50;;;10.46;41.14
64841;BME280;51307;52.162;7.560;2023-04-19T03:32:57;102260.41;;;10.43;41.00
64841;BME280;51307;52.162;7.560;2023-04-19T03:35:24;102256.16;;;10.30;40.77
64841;BME280;51307;52.162;7.560;2023-04-19T03:37:50;102261.88;;;10.25;39.40
64841;BME280;51307;52.162;7.560;2023-04-19T03:40:16;102262.50;;;10.29;38.47
64841;BME280;51307;52.162;7.560;2023-04-19T03:42:42;102263.09;;;10.32;38.85
64841;BME280;51307;52.162;7.560;2023-04-19T03:45:08;102266.13;;;10.27;38.34
64841;BME280;51307;52.162;7.560;2023-04-19T03:47:33;102262.25;;;10.20;37.54
64841;BME280;51307;52.162;7.560;2023-04-19T03:49:59;102264.19;;;10.18;37.73
64841;BME280;51307;52.162;7.560;2023-04-19T03:52:24;102265.28;;;10.16;37.41
64841;BME280;51307;52.162;7.560;2023-04-19T03:54:50;102263.94;;;10.10;37.19
64841;BME280;51307;52.162;7.560;2023-04-19T03:57:15;102266.97;;;10.17;37.12
64841;BME280;51307;52.162;7.560;2023-04-19T03:59:41;102265.53;;;10.01;36.75
64841;BME280;51307;52.162;7.560;2023-04-19T04:02:07;102270.50;;;9.95;36.67
64841;BME280;51307;52.162;7.560;2023-04-19T04:04:32;102271.59;;;9.92;36.48
64841;BME280;51307;52.162;7.560;2023-04-19T04:06:58;102271.94;;;9.87;36.47
64841;BME280;51307;52.162;7.560;2023-04-19T04:09:23;102261.63;;;9.94;36.29
64841;BME280;51307;52.162;7.560;2023-04-19T04:11:49;102275.50;;;9.88;36.51
64841;BME280;51307;52.162;7.560;2023-04-19T04:14:14;102274.50;;;9.77;36.54
64841;BME280;51307;52.162;7.560;2023-04-19T04:16:40;102264.03;;;9.74;36.35
64841;BME280;51307;52.162;7.560;2023-04-19T04:19:05;102274.97;;;9.71;36.91
64841;BME280;51307;52.162;7.560;2023-04-19T04:21:31;102272.03;;;9.63;36.46
64841;BME280;51307;52.162;7.560;2023-04-19T04:23:57;102276.91;;;9.69;36.55
64841;BME280;51307;52.162;7.560;2023-04-19T04:26:23;102275.44;;;9.65;36.18
64841;BME280;51307;52.162;7.560;2023-04-19T04:28:50;102278.34;;;9.62;36.45
64841;BME280;51307;52.162;7.560;2023-04-19T04:31:16;102281.38;;;9.57;36.47
64841;BME280;51307;52.162;7.560;2023-04-19T04:33:43;102284.28;;;9.54;36.57
64841;BME280;51307;52.162;7.560;2023-04-19T04:36:10;102281.59;;;9.54;36.62
64841;BME280;51307;52.162;7.560;2023-04-19T04:38:36;102284.22;;;9.43;36.62
64841;BME280;51307;52.162;7.560;2023-04-19T04:41:01;102300.16;;;9.45;37.23
64841;BME280;51307;52.162;7.560;2023-04-19T04:43:27;102299.16;;;9.34;37.18
64841;BME280;51307;52.162;7.560;2023-04-19T04:45:54;102301.94;;;9.33;37.24
64841;BME280;51307;52.162;7.560;2023-04-19T04:48:22;102301.78;;;9.23;37.39
64841;BME280;51307;52.162;7.560;2023-04-19T04:50:48;102306.19;;;9.35;37.55
64841;BME280;51307;52.162;7.560;2023-04-19T04:53:13;102310.63;;;9.23;37.59
64841;BME280;51307;52.162;7.560;2023-04-19T04:55:39;102308.47;;;9.29;37.91
64841;BME280;51307;52.162;7.560;2023-04-19T04:58:05;102310.75;;;9.22;37.76
64841;BME280;51307;52.162;7.560;2023-04-19T05:00:31;102311.84;;;9.19;37.86
64841;BME280;51307;52.162;7.560;2023-04-19T05:02:57;102309.28;;;9.18;38.04
64841;BME280;51307;52.162;7.560;2023-04-19T05:05:23;102316.41;;;9.17;38.17
64841;BME280;51307;52.162;7.560;2023-04-19T05:07:48;102315.22;;;8.97;38.27
64841;BME280;51307;52.162;7.560;2023-04-19T05:10:13;102322.91;;;9.02;38.41
64841;BME280;51307;52.162;7.560;2023-04-19T05:12:40;102324.38;;;9.06;38.83
64841;BME280;51307;52.162;7.560;2023-04-19T05:15:06;102321.25;;;9.12;38.57
64841;BME280;51307;52.162;7.560;2023-04-19T05:17:31;102328.00;;;9.05;38.62
64841;BME280;51307;52.162;7.560;2023-04-19T05:19:57;102326.88;;;8.96;38.70
64841;BME280;51307;52.162;7.560;2023-04-19T05:22:22;102326.13;;;8.94;38.86
64841;BME280;51307;52.162;7.560;2023-04-19T05:24:48;102334.25;;;8.92;38.54
64841;BME280;51307;52.162;7.560;2023-04-19T05:27:14;102327.31;;;8.90;38.84
64841;BME280;51307;52.162;7.560;2023-04-19T05:29:40;102341.19;;;8.82;38.82
64841;BME280;51307;52.162;7.560;2023-04-19T05:32:06;102341.19;;;8.95;38.93
64841;BME280;51307;52.162;7.560;2023-04-19T05:34:32;102345.78;;;8.93;39.44
64841;BME280;51307;52.162;7.560;2023-04-19T05:36:58;102340.72;;;9.01;39.28
64841;BME280;51307;52.162;7.560;2023-04-19T05:39:23;102330.03;;;9.01;39.41
64841;BME280;51307;52.162;7.560;2023-04-19T05:41:49;102330.75;;;8.92;39.36
64841;BME280;51307;52.162;7.560;2023-04-19T05:44:15;102329.75;;;8.93;39.69
64841;BME280;51307;52.162;7.560;2023-04-19T05:46:40;102339.38;;;8.96;39.57
64841;BME280;51307;52.162;7.560;2023-04-19T05:49:06;102336.56;;;8.97;39.75
64841;BME280;51307;52.162;7.560;2023-04-19T05:51:31;102339.72;;;8.91;40.08
64841;BME280;51307;52.162;7.560;2023-04-19T05:53:56;102344.41;;;8.87;39.83
64841;BME280;51307;52.162;7.560;2023-04-19T05:56:22;102340.03;;;8.86;39.68
64841;BME280;51307;52.162;7.560;2023-04-19T05:58:47;102330.97;;;8.63;40.18
64841;BME280;51307;52.162;7.560;2023-04-19T06:01:13;102328.81;;;8.81;39.95
64841;BME280;51307;52.162;7.560;2023-04-19T06:03:38;102331.38;;;8.83;39.88
64841;BME280;51307;52.162;7.560;2023-04-19T06:06:05;102329.63;;;8.95;40.16
64841;BME280;51307;52.162;7.560;2023-04-19T06:08:30;102324.66;;;8.90;40.21
64841;BME280;51307;52.162;7.560;2023-04-19T06:10:56;102332.00;;;8.99;40.01
64841;BME280;51307;52.162;7.560;2023-04-19T06:13:21;102330.03;;;9.01;39.86
64841;BME280;51307;52.162;7.560;2023-04-19T06:15:47;102334.13;;;8.94;39.38
64841;BME280;51307;52.162;7.560;2023-04-19T06:18:13;102330.41;;;8.97;39.40
64841;BME280;51307;52.162;7.560;2023-04-19T06:20:39;102330.75;;;8.92;40.08
64841;BME280;51307;52.162;7.560;2023-04-19T06:23:06;102324.66;;;8.90;39.86
64841;BME280;51307;52.162;7.560;2023-04-19T06:25:31;102319.06;;;8.93;40.50
64841;BME280;51307;52.162;7.560;2023-04-19T06:27:57;102318.03;;;8.83;39.76
64841;BME280;51307;52.162;7.560;2023-04-19T06:30:22;102329.22;;;8.88;40.69
64841;BME280;51307;52.162;7.560;2023-04-19T06:32:48;102324.75;;;8.75;39.92
64841;BME280;51307;52.162;7.560;2023-04-19T06:35:14;102323.91;;;8.88;40.44
64841;BME280;51307;52.162;7.560;2023-04-19T06:37:40;102329.47;;;8.85;40.36
64841;BME280;51307;52.162;7.560;2023-04-19T06:40:06;102328.81;;;8.81;40.33
64841;BME280;51307;52.162;7.560;2023-04-19T06:42:36;102327.56;;;8.87;40.43
64841;BME280;51307;52.162;7.560;2023-04-19T06:45:03;102323.66;;;8.28;41.44
64841;BME280;51307;52.162;7.560;2023-04-19T06:47:29;102326.88;;;8.33;41.77
64841;BME280;51307;52.162;7.560;2023-04-19T06:49:55;102332.03;;;8.86;40.74
64841;BME280;51307;52.162;7.560;2023-04-19T06:52:23;102333.69;;;9.00;40.31
64841;BME280;51307;52.162;7.560;2023-04-19T06:54:49;102333.81;;;8.99;40.52
64841;BME280;51307;52.162;7.560;2023-04-19T06:57:18;102340.72;;;9.01;40.38
64841;BME280;51307;52.162;7.560;2023-04-19T06:59:43;102330.97;;;9.13;40.86
64841;BME280;51307;52.162;7.560;2023-04-19T07:02:09;102332.44;;;9.17;40.50
64841;BME280;51307;52.162;7.560;2023-04-19T07:04:35;102335.50;;;9.24;40.09
64841;BME280;51307;52.162;7.560;2023-04-19T07:07:02;102333.91;;;9.21;40.92
64841;BME280;51307;52.162;7.560;2023-04-19T07:09:27;102332.69;;;9.38;40.11
64841;BME280;51307;52.162;7.560;2023-04-19T07:11:53;102327.50;;;9.24;40.13
64841;BME280;51307;52.162;7.560;2023-04-19T07:14:19;102326.94;;;9.32;39.80
64841;BME280;51307;52.162;7.560;2023-04-19T07:16:45;102332.41;;;9.30;39.57
64841;BME280;51307;52.162;7.560;2023-04-19T07:19:11;102327.44;;;9.37;39.52
64841;BME280;51307;52.162;7.560;2023-04-19T07:21:37;102332.44;;;9.41;40.10
64841;BME280;51307;52.162;7.560;2023-04-19T07:24:04;102331.59;;;9.41;40.37
64841;BME280;51307;52.162;7.560;2023-04-19T07:26:30;102334.72;;;9.35;40.15
64841;BME280;51307;52.162;7.560;2023-04-19T07:28:56;102324.22;;;9.45;40.18
64841;BME280;51307;52.162;7.560;2023-04-19T07:31:23;102327.72;;;9.45;39.61
64841;BME280;51307;52.162;7.560;2023-04-19T07:33:52;102326.16;;;9.54;40.03
64841;BME280;51307;52.162;7.560;2023-04-19T07:36:18;102321.13;;;9.62;39.91
64841;BME280;51307;52.162;7.560;2023-04-19T07:38:44;102306.44;;;9.68;40.06
64841;BME280;51307;52.162;7.560;2023-04-19T07:41:10;102316.47;;;9.53;39.36
64841;BME280;51307;52.162;7.560;2023-04-19T07:43:36;102318.19;;;9.65;38.87
64841;BME280;51307;52.162;7.560;2023-04-19T07:46:11;102300.47;;;9.64;38.98
64841;BME280;51307;52.162;7.560;2023-04-19T07:48:37;102302.16;;;9.65;38.49
64841;BME280;51307;52.162;7.560;2023-04-19T07:51:13;102308.72;;;9.61;37.92
64841;BME280;51307;52.162;7.560;2023-04-19T07:53:39;102303.88;;;9.66;38.79
64841;BME280;51307;52.162;7.560;2023-04-19T07:56:09;102314.19;;;9.71;38.71
64841;BME280;51307;52.162;7.560;2023-04-19T07:58:36;102303.13;;;9.64;38.25
64841;BME280;51307;52.162;7.560;2023-04-19T08:01:02;102302.19;;;9.76;38.18
64841;BME280;51307;52.162;7.560;2023-04-19T08:03:29;102293.19;;;9.66;38.29
64841;BME280;51307;52.162;7.560;2023-04-19T08:05:55;102303.38;;;9.72;38.24
64841;BME280;51307;52.162;7.560;2023-04-19T08:08:20;102292.09;;;9.69;37.72
64841;BME280;51307;52.162;7.560;2023-04-19T08:10:46;102299.03;;;9.83;37.99
64841;BME280;51307;52.162;7.560;2023-04-19T08:13:11;102297.34;;;9.82;38.13
64841;BME280;51307;52.162;7.560;2023-04-19T08:15:37;102302.44;;;9.85;37.63
64841;BME280;51307;52.162;7.560;2023-04-19T08:18:02;102317.06;;;9.92;36.85
64841;BME280;51307;52.162;7.560;2023-04-19T08:20:29;102303.44;;;9.95;36.60
64841;BME280;51307;52.162;7.560;2023-04-19T08:22:56;102306.00;;;9.97;36.71
64841;BME280;51307;52.162;7.560;2023-04-19T08:25:22;102296.63;;;9.91;36.25
64841;BME280;51307;52.162;7.560;2023-04-19T08:27:51;102295.78;;;10.02;37.31
64841;BME280;51307;52.162;7.560;2023-04-19T08:30:17;102296.53;;;10.04;36.71
64841;BME280;51307;52.162;7.560;2023-04-19T08:32:42;102290.22;;;10.16;36.74
64841;BME280;51307;52.162;7.560;2023-04-19T08:35:08;102286.66;;;10.16;36.18
64841;BME280;51307;52.162;7.560;2023-04-19T08:37:34;102282.06;;;10.18;35.70
64841;BME280;51307;52.162;7.560;2023-04-19T08:39:59;102285.09;;;10.24;35.95
64841;BME280;51307;52.162;7.560;2023-04-19T08:42:25;102282.94;;;10.30;35.37
64841;BME280;51307;52.162;7.560;2023-04-19T08:44:51;102284.25;;;10.35;35.26
64841;BME280;51307;52.162;7.560;2023-04-19T08:47:18;102275.25;;;10.36;35.12
64841;BME280;51307;52.162;7.560;2023-04-19T08:49:44;102279.97;;;10.44;35.01
64841;BME280;51307;52.162;7.560;2023-04-19T08:52:12;102283.56;;;10.45;34.15
64841;BME280;51307;52.162;7.560;2023-04-19T08:54:38;102262.84;;;10.47;33.75
64841;BME280;51307;52.162;7.560;2023-04-19T08:57:04;102275.88;;;10.51;33.54
64841;BME280;51307;52.162;7.560;2023-04-19T08:59:29;102273.28;;;10.38;32.63
64841;BME280;51307;52.162;7.560;2023-04-19T09:01:55;102274.78;;;10.54;32.91
64841;BME280;51307;52.162;7.560;2023-04-19T09:04:24;102265.41;;;10.59;32.53
64841;BME280;51307;52.162;7.560;2023-04-19T09:06:50;102257.75;;;10.55;31.49
64841;BME280;51307;52.162;7.560;2023-04-19T09:11:43;102258.44;;;10.68;31.99
64841;BME280;51307;52.162;7.560;2023-04-19T09:14:13;102263.34;;;10.63;31.63
64841;BME280;51307;52.162;7.560;2023-04-19T09:16:39;102255.53;;;10.71;31.43
64841;BME280;51307;52.162;7.560;2023-04-19T09:19:05;102254.91;;;10.79;31.56
64841;BME280;51307;52.162;7.560;2023-04-19T09:21:32;102249.78;;;10.76;31.34
64841;BME280;51307;52.162;7.560;2023-04-19T09:23:59;102250.34;;;10.91;32.00
64841;BME280;51307;52.162;7.560;2023-04-19T09:26:25;102246.06;;;11.00;30.75
64841;BME280;51307;52.162;7.560;2023-04-19T09:29:02;102239.06;;;11.08;29.96
64841;BME280;51307;52.162;7.560;2023-04-19T09:31:33;102245.16;;;11.10;30.30
64841;BME280;51307;52.162;7.560;2023-04-19T09:34:18;102247.31;;;11.17;30.69
64841;BME280;51307;52.162;7.560;2023-04-19T09:36:43;102238.47;;;11.37;31.41
64841;BME280;51307;52.162;7.560;2023-04-19T09:39:09;102233.25;;;11.36;31.74
64841;BME280;51307;52.162;7.560;2023-04-19T09:41:51;102229.69;;;11.35;30.71
64841;BME280;51307;52.162;7.560;2023-04-19T09:44:18;102233.47;;;11.33;30.54
64841;BME280;51307;52.162;7.560;2023-04-19T09:46:44;102233.63;;;11.31;30.26
64841;BME280;51307;52.162;7.560;2023-04-19T09:51:49;102236.28;;;11.31;29.46
64841;BME280;51307;52.162;7.560;2023-04-19T09:54:17;102223.78;;;11.32;29.31
64841;BME280;51307;52.162;7.560;2023-04-19T09:56:44;102225.06;;;11.37;29.87
64841;BME280;51307;52.162;7.560;2023-04-19T09:59:10;102218.06;;;11.46;31.34
64841;BME280;51307;52.162;7.560;2023-04-19T10:01:48;102221.47;;;11.48;29.94
64841;BME280;51307;52.162;7.560;2023-04-19T10:04:17;102225.00;;;11.49;30.98
64841;BME280;51307;52.162;7.560;2023-04-19T10:06:48;102220.38;;;11.51;31.50
64841;BME280;51307;52.162;7.560;2023-04-19T10:09:19;102211.97;;;11.65;31.42
64841;BME280;51307;52.162;7.560;2023-04-19T10:11:52;102217.22;;;11.67;31.51
64841;BME280;51307;52.162;7.560;2023-04-19T10:14:23;102209.28;;;11.65;33.11
64841;BME280;51307;52.162;7.560;2023-04-19T10:16:52;102209.59;;;11.72;31.57
64841;BME280;51307;52.162;7.560;2023-04-19T10:19:19;102192.06;;;11.68;31.78
64841;BME280;51307;52.162;7.560;2023-04-19T10:21:47;102191.97;;;11.69;31.88
64841;BME280;51307;52.162;7.560;2023-04-19T10:24:14;102191.28;;;11.77;32.17
64841;BME280;51307;52.162;7.560;2023-04-19T10:27:11;102190.72;;;11.73;31.98
64841;BME280;51307;52.162;7.560;2023-04-19T10:32:17;102179.44;;;11.80;31.82
64841;BME280;51307;52.162;7.560;2023-04-19T10:34:45;102175.16;;;11.88;32.70
64841;BME280;51307;52.162;7.560;2023-04-19T10:37:12;102161.03;;;11.96;32.80
64841;BME280;51307;52.162;7.560;2023-04-19T10:39:40;102163.72;;;11.96;33.20
64841;BME280;51307;52.162;7.560;2023-04-19T10:42:06;102159.09;;;12.08;32.33
64841;BME280;51307;52.162;7.560;2023-04-19T10:44:31;102145.28;;;12.13;33.50
64841;BME280;51307;52.162;7.560;2023-04-19T10:47:00;102145.44;;;12.11;32.18
64841;BME280;51307;52.162;7.560;2023-04-19T10:49:28;102134.69;;;12.11;32.81
64841;BME280;51307;52.162;7.560;2023-04-19T10:51:56;102137.41;;;12.21;33.48
64841;BME280;51307;52.162;7.560;2023-04-19T10:54:32;102127.06;;;12.06;32.07
64841;BME280;51307;52.162;7.560;2023-04-19T10:57:08;102125.41;;;12.25;31.78
64841;BME280;51307;52.162;7.560;2023-04-19T10:59:39;102124.28;;;12.37;32.36
64841;BME280;51307;52.162;7.560;2023-04-19T11:02:33;102122.72;;;12.44;32.83
64841;BME280;51307;52.162;7.560;2023-04-19T11:05:00;102118.66;;;12.50;32.14
64841;BME280;51307;52.162;7.560;2023-04-19T11:07:25;102115.53;;;12.55;31.38
64841;BME280;51307;52.162;7.560;2023-04-19T11:09:51;102107.78;;;12.52;31.90
64841;BME280;51307;52.162;7.560;2023-04-19T11:12:18;102106.19;;;12.59;31.42
64841;BME280;51307;52.162;7.560;2023-04-19T11:14:47;102096.88;;;12.63;32.01
64841;BME280;51307;52.162;7.560;2023-04-19T11:17:16;102095.88;;;12.74;31.80
64841;BME280;51307;52.162;7.560;2023-04-19T11:19:52;102093.91;;;12.76;30.27
64841;BME280;51307;52.162;7.560;2023-04-19T11:22:24;102084.72;;;12.78;31.85
64841;BME280;51307;52.162;7.560;2023-04-19T11:24:49;102084.72;;;12.78;30.96
64841;BME280;51307;52.162;7.560;2023-04-19T11:27:15;102086.66;;;12.96;32.11
64841;BME280;51307;52.162;7.560;2023-04-19T11:29:40;102080.44;;;12.95;31.10
64841;BME280;51307;52.162;7.560;2023-04-19T11:32:06;102086.06;;;13.02;31.74
64841;BME280;51307;52.162;7.560;2023-04-19T11:34:39;102083.22;;;13.04;31.05
64841;BME280;51307;52.162;7.560;2023-04-19T11:37:04;102070.09;;;13.01;30.62
64841;BME280;51307;52.162;7.560;2023-04-19T11:39:30;102077.59;;;13.07;30.49
64841;BME280;51307;52.162;7.560;2023-04-19T11:41:55;102074.75;;;13.18;30.35
64841;BME280;51307;52.162;7.560;2023-04-19T11:44:22;102076.19;;;13.03;29.25
64841;BME280;51307;52.162;7.560;2023-04-19T11:46:58;102067.38;;;13.10;32.05
64841;BME280;51307;52.162;7.560;2023-04-19T11:49:32;102066.53;;;13.20;31.52
64841;BME280;51307;52.162;7.560;2023-04-19T11:52:04;102056.94;;;13.17;31.74
64841;BME280;51307;52.162;7.560;2023-04-19T11:54:30;102048.44;;;13.22;30.54
64841;BME280;51307;52.162;7.560;2023-04-19T11:57:03;102051.53;;;13.27;29.95
64841;BME280;51307;52.162;7.560;2023-04-19T11:59:34;102038.22;;;13.25;29.40
64841;BME280;51307;52.162;7.560;2023-04-19T12:02:18;102038.47;;;13.32;30.99
64841;BME280;51307;52.162;7.560;2023-04-19T12:04:44;102034.84;;;13.23;29.65
64841;BME280;51307;52.162;7.560;2023-04-19T12:07:09;102029.16;;;13.36;30.02
64841;BME280;51307;52.162;7.560;2023-04-19T12:09:35;102035.09;;;13.30;31.30
64841;BME280;51307;52.162;7.560;2023-04-19T12:12:01;102030.53;;;13.40;30.88
64841;BME280;51307;52.162;7.560;2023-04-19T12:14:28;102009.63;;;13.34;29.45
64841;BME280;51307;52.162;7.560;2023-04-19T12:17:04;102016.84;;;13.34;28.81
64841;BME280;51307;52.162;7.560;2023-04-19T12:19:40;102019.03;;;13.20;29.27
64841;BME280;51307;52.162;7.560;2023-04-19T12:22:12;102022.31;;;13.42;31.23
64841;BME280;51307;52.162;7.560;2023-04-19T12:24:38;102012.97;;;13.46;30.28
64841;BME280;51307;52.162;7.560;2023-04-19T12:27:05;102012.09;;;13.45;30.36
64841;BME280;51307;52.162;7.560;2023-04-19T12:29:31;102015.75;;;13.54;31.27
64841;BME280;51307;52.162;7.560;2023-04-19T12:31:58;102005.97;;;13.53;29.04
64841;BME280;51307;52.162;7.560;2023-04-19T12:34:23;102011.44;;;13.61;29.47
64841;BME280;51307;52.162;7.560;2023-04-19T12:36:49;102007.19;;;13.69;30.35
64841;BME280;51307;52.162;7.560;2023-04-19T12:39:14;102016.47;;;13.74;29.38
64841;BME280;51307;52.162;7.560;2023-04-19T12:41:40;102011.88;;;13.85;28.56
64841;BME280;51307;52.162;7.560;2023-04-19T12:44:05;102006.50;;;13.85;28.76
64841;BME280;51307;52.162;7.560;2023-04-19T12:46:31;102003.28;;;13.81;29.01
64841;BME280;51307;52.162;7.560;2023-04-19T12:48:56;101996.97;;;13.90;29.16
64841;BME280;51307;52.162;7.560;2023-04-19T12:51:22;101993.56;;;13.88;28.34
64841;BME280;51307;52.162;7.560;2023-04-19T12:53:48;101993.06;;;13.85;29.14
64841;BME280;51307;52.162;7.560;2023-04-19T12:56:14;101992.81;;;13.78;27.98
64841;BME280;51307;52.162;7.560;2023-04-19T12:58:41;101983.06;;;13.95;30.28